.
WxDataArchive / Data Records for 2009-12-17
2009-12-16 December 2009 2009-12-18

Data Records for Thursday, 17 December 2009

Time	Temp	Chill	HIndex	Humid	Dewpt	 Wind 	HiWind	WindDir	Rain 	Barom 
-----	----	-----	------	-----	-----	------	------	-------	-----	----- 
00:00	20.2	20.2	20.2	66	10.7	0	0	---	0.00	30.506 
00:05	20.0	20.0	20.0	67	10.8	0	0	---	0.00	30.506 
00:10	19.9	19.9	19.9	68	11.1	0	0	---	0.00	30.506 
00:15	19.7	19.7	19.7	69	11.2	0	0	---	0.00	30.502 
00:20	19.5	19.5	19.5	69	11.0	0	0	---	0.00	30.502 
00:25	19.4	19.4	19.4	69	10.9	0	0	---	0.00	30.502 
00:30	19.1	19.1	19.1	71	11.3	0	0	---	0.00	30.501 
00:35	18.9	18.9	18.9	71	11.1	0	0	---	0.00	30.501 
00:40	18.8	18.8	18.8	71	11.0	0	0	---	0.00	30.501 
00:45	18.4	18.4	18.4	72	10.9	0	0	---	0.00	30.498 
00:50	18.3	18.3	18.3	72	10.8	0	0	---	0.00	30.498 
00:55	18.1	18.1	18.1	73	10.9	0	0	---	0.00	30.498 
01:00	18.0	18.0	18.0	73	10.8	0	0	---	0.00	30.493 
01:05	17.8	17.8	17.8	74	10.9	0	0	---	0.00	30.493 
01:10	17.7	17.7	17.7	75	11.1	0	0	---	0.00	30.493 
01:15	17.5	17.5	17.5	75	11.0	0	0	---	0.00	30.487 
01:20	17.3	17.3	17.3	75	10.8	0	0	---	0.00	30.487 
01:25	17.2	17.2	17.2	76	11.0	0	0	---	0.00	30.487 
01:30	17.2	17.2	17.2	76	11.0	0	0	---	0.00	30.490 
01:35	17.0	17.0	17.0	77	11.1	0	0	---	0.00	30.490 
01:40	16.9	16.9	16.9	77	11.0	0	0	---	0.00	30.490 
01:45	16.7	16.7	16.7	77	10.8	0	0	---	0.00	30.487 
01:50	16.5	16.5	16.5	78	10.9	0	0	---	0.00	30.487 
01:55	16.5	16.5	16.5	78	10.9	0	0	---	0.00	30.487 
02:00	16.4	16.4	16.4	79	11.0	0	0	---	0.00	30.487 
02:05	16.4	16.4	16.4	79	11.0	0	0	---	0.00	30.487 
02:10	16.2	16.2	16.2	79	10.9	0	0	---	0.00	30.487 
02:15	16.1	16.1	16.1	80	11.0	0	0	---	0.00	30.494 
02:20	16.1	16.1	16.1	80	11.0	0	0	---	0.00	30.494 
02:25	15.9	15.9	15.9	80	10.8	0	0	---	0.00	30.494 
02:30	15.9	15.9	15.9	80	10.8	0	0	---	0.00	30.495 
02:35	15.9	15.9	15.9	81	11.1	0	0	---	0.00	30.495 
02:40	15.7	15.7	15.7	81	10.9	0	0	---	0.00	30.495 
02:45	15.7	15.7	15.7	81	10.9	0	0	---	0.00	30.493 
02:50	15.7	15.7	15.7	82	11.2	0	0	---	0.00	30.493 
02:55	15.7	15.7	15.7	82	11.2	0	0	---	0.00	30.493 
03:00	15.6	15.6	15.6	82	11.1	0	0	---	0.00	30.489 
03:05	15.6	15.6	15.6	82	11.1	0	0	---	0.00	30.489 
03:10	15.6	15.6	15.6	82	11.1	0	0	---	0.00	30.489 
03:15	15.7	15.7	15.7	83	11.5	0	0	---	0.00	30.490 
03:20	15.9	15.9	15.9	83	11.7	0	0	---	0.00	30.490 
03:25	15.9	15.9	15.9	83	11.7	0	0	---	0.00	30.490 
03:30	15.9	15.9	15.9	83	11.7	0	0	---	0.00	30.490 
03:35	15.7	15.7	15.7	83	11.5	0	0	---	0.00	30.490 
03:40	15.9	15.9	15.9	83	11.7	0	0	---	0.00	30.490 
03:45	15.9	15.9	15.9	83	11.7	0	0	---	0.00	30.492 
03:50	15.7	15.7	15.7	83	11.5	0	0	---	0.00	30.492 
03:55	15.7	15.7	15.7	83	11.5	0	0	---	0.00	30.492 
04:00	15.7	15.7	15.7	83	11.5	0	0	---	0.00	30.486 
04:05	15.6	15.6	15.6	83	11.4	0	0	---	0.00	30.486 
04:10	15.6	15.6	15.6	84	11.6	0	0	---	0.00	30.486 
04:15	15.6	15.6	15.6	84	11.6	0	0	---	0.00	30.481 
04:20	15.6	15.6	15.6	84	11.6	0	0	---	0.00	30.481 
04:25	15.6	15.6	15.6	84	11.6	0	0	---	0.00	30.481 
04:30	15.7	15.7	15.7	84	11.7	0	0	---	0.00	30.486 
04:35	15.7	15.7	15.7	84	11.7	0	0	---	0.00	30.486 
04:40	15.7	15.7	15.7	84	11.7	0	0	---	0.00	30.486 
04:45	15.7	15.7	15.7	84	11.7	0	0	---	0.00	30.485 
04:50	15.6	15.6	15.6	84	11.6	0	0	---	0.00	30.485 
04:55	15.6	15.6	15.6	84	11.6	0	0	---	0.00	30.485 
05:00	15.4	15.4	15.4	84	11.4	0	0	---	0.00	30.487 
05:05	15.4	15.4	15.4	84	11.4	0	0	---	0.00	30.487 
05:10	15.4	15.4	15.4	84	11.4	0	0	---	0.00	30.487 
05:15	15.2	15.2	15.2	84	11.3	0	0	---	0.00	30.479 
05:20	15.2	15.2	15.2	84	11.3	0	0	---	0.00	30.479 
05:25	15.2	15.2	15.2	84	11.3	0	0	---	0.00	30.479 
05:30	15.1	15.1	15.1	84	11.2	0	0	---	0.00	30.473 
05:35	15.1	15.1	15.1	84	11.2	0	0	---	0.00	30.473 
05:40	15.1	15.1	15.1	84	11.2	0	0	---	0.00	30.473 
05:45	14.9	14.9	14.9	84	11.0	0	0	---	0.00	30.473 
05:50	15.1	15.1	15.1	85	11.4	0	0	---	0.00	30.473 
05:55	15.1	15.1	15.1	85	11.4	0	0	---	0.00	30.473 
06:00	15.1	15.1	15.1	85	11.4	0	0	---	0.00	30.476 
06:05	14.9	14.9	14.9	84	11.0	0	0	---	0.00	30.476 
06:10	14.9	14.9	14.9	84	11.0	0	0	---	0.00	30.476 
06:15	14.8	14.8	14.8	85	11.1	0	0	---	0.00	30.480 
06:20	14.8	14.8	14.8	84	10.9	0	0	---	0.00	30.480 
06:25	14.8	14.8	14.8	84	10.9	0	0	---	0.00	30.480 
06:30	14.8	14.8	14.8	85	11.1	0	0	---	0.00	30.480 
06:35	14.8	14.8	14.8	85	11.1	0	0	---	0.00	30.480 
06:40	15.1	15.1	15.1	85	11.4	0	0	---	0.00	30.480 
06:45	15.1	15.1	15.1	85	11.4	0	0	---	0.00	30.475 
06:50	15.2	15.2	15.2	85	11.5	0	0	---	0.00	30.475 
06:55	15.4	15.4	15.4	85	11.7	0	0	---	0.00	30.475 
07:00	15.9	15.9	15.9	85	12.2	0	0	---	0.00	30.473 
07:05	16.2	16.2	16.2	85	12.5	0	0	---	0.00	30.473 
07:10	16.9	16.9	16.9	84	12.9	0	2	248	0.00	30.473 
07:15	17.5	17.5	17.5	83	13.2	1	2	248	0.00	30.473 
07:20	18.1	18.1	18.1	81	13.3	0	2	248	0.00	30.473 
07:25	18.6	18.6	18.6	79	13.2	1	2	248	0.00	30.473 
07:30	18.9	18.9	18.9	78	13.2	0	3	112	0.00	30.471 
07:35	19.2	19.2	19.2	77	13.2	0	2	112	0.00	30.471 
07:40	19.4	19.4	19.4	77	13.4	0	2	112	0.00	30.471 
07:45	19.5	19.5	19.5	77	13.5	0	1	112	0.00	30.464 
07:50	19.5	19.5	19.5	76	13.2	0	2	112	0.00	30.464 
07:55	19.7	19.7	19.7	76	13.4	0	1	112	0.00	30.464 
08:00	19.7	19.7	19.7	76	13.4	0	2	112	0.00	30.460 
08:05	19.7	19.7	19.7	75	13.1	1	3	112	0.00	30.460 
08:10	19.9	19.9	19.9	75	13.3	0	2	112	0.00	30.460 
08:15	19.9	19.9	19.9	75	13.3	0	2	112	0.00	30.459 
08:20	20.0	20.0	20.0	75	13.4	0	1	112	0.00	30.459 
08:25	20.0	20.0	20.0	74	13.1	1	2	112	0.00	30.459 
08:30	20.2	20.2	20.2	74	13.3	1	2	112	0.00	30.455 
08:35	20.3	20.3	20.3	74	13.4	1	2	112	0.00	30.455 
08:40	20.5	20.5	20.5	75	13.9	1	2	112	0.00	30.455 
08:45	20.6	20.6	20.6	75	14.0	0	2	112	0.00	30.454 
08:50	21.0	21.0	21.0	74	14.0	1	3	90	0.00	30.454 
08:55	21.1	21.1	21.1	74	14.1	1	3	90	0.00	30.454 
09:00	21.4	21.4	21.4	74	14.4	1	3	90	0.00	30.447 
09:05	21.6	21.6	21.6	73	14.3	0	2	90	0.00	30.447 
09:10	21.8	21.8	21.8	73	14.5	0	2	90	0.00	30.447 
09:15	21.9	21.9	21.9	73	14.6	1	3	90	0.00	30.437 
09:20	21.9	21.9	21.9	72	14.3	1	3	90	0.00	30.437 
09:25	22.2	22.2	22.2	73	14.9	1	3	90	0.00	30.437 
09:30	22.5	22.5	22.5	72	14.9	1	4	112	0.00	30.430 
09:35	22.7	22.7	22.7	72	15.1	1	5	112	0.00	30.430 
09:40	22.9	22.9	22.9	72	15.2	1	3	135	0.00	30.430 
09:45	23.2	23.2	23.2	73	15.9	1	4	112	0.00	30.426 
09:50	23.3	23.3	23.3	73	15.9	1	3	112	0.00	30.426 
09:55	23.5	23.5	23.5	73	16.1	1	3	135	0.00	30.426 
10:00	23.8	23.8	23.8	72	16.1	1	3	112	0.00	30.429 
10:05	24.1	24.1	24.1	72	16.4	0	3	112	0.00	30.429 
10:10	24.2	24.2	24.2	70	15.9	0	2	112	0.00	30.429 
10:15	24.5	24.5	24.5	71	16.5	1	3	112	0.00	30.432 
10:20	24.8	24.8	24.8	71	16.8	0	1	112	0.00	30.432 
10:25	25.1	25.1	25.1	71	17.0	0	2	112	0.00	30.432 
10:30	25.6	25.6	25.6	70	17.2	0	1	112	0.00	30.433 
10:35	25.8	25.8	25.8	69	17.1	0	2	112	0.00	30.433 
10:40	26.1	26.1	26.1	64	15.6	2	5	112	0.00	30.433 
10:45	26.3	26.3	26.3	67	16.9	1	3	90	0.00	30.426 
10:50	26.6	26.6	26.6	66	16.8	1	4	90	0.00	30.426 
10:55	26.7	26.7	26.7	67	17.2	0	2	135	0.00	30.426 
11:00	27.0	27.0	27.0	66	17.2	1	3	135	0.00	30.414 
11:05	27.3	27.3	27.3	66	17.5	1	3	135	0.00	30.414 
11:10	27.6	27.6	27.6	63	16.7	1	4	158	0.00	30.414 
11:15	27.9	27.9	27.9	61	16.2	1	4	135	0.00	30.407 
11:20	28.1	28.1	28.1	61	16.4	1	3	135	0.00	30.407 
11:25	28.4	28.4	28.4	59	15.9	1	4	135	0.00	30.407 
11:30	28.7	28.7	28.7	58	15.8	2	4	135	0.00	30.402 
11:35	29.0	29.0	29.0	58	16.1	1	5	90	0.00	30.402 
11:40	29.3	29.3	29.3	58	16.4	1	2	135	0.00	30.402 
11:45	29.7	29.7	29.7	56	15.9	2	4	90	0.00	30.401 
11:50	30.3	30.3	30.3	56	16.5	1	4	112	0.00	30.401 
11:55	30.6	30.6	30.6	56	16.8	1	3	112	0.00	30.401 
12:00	30.9	30.9	30.9	55	16.7	1	3	112	0.00	30.384 
12:05	30.9	30.9	30.9	54	16.2	2	5	112	0.00	30.384 
12:10	31.0	31.0	31.0	55	16.8	1	3	135	0.00	30.384 
12:15	31.3	31.3	31.3	53	16.2	1	5	45	0.00	30.380 
12:20	31.6	31.6	31.6	53	16.5	1	3	135	0.00	30.380 
12:25	31.8	31.8	31.8	52	16.2	2	5	112	0.00	30.380 
12:30	31.8	31.8	31.8	52	16.2	2	4	112	0.00	30.367 
12:35	31.8	31.8	31.8	53	16.6	2	5	112	0.00	30.367 
12:40	31.6	31.6	31.6	53	16.5	1	4	112	0.00	30.367 
12:45	31.8	31.8	31.8	54	17.1	1	3	112	0.00	30.360 
12:50	32.1	32.1	32.1	54	17.4	1	4	135	0.00	30.360 
12:55	32.4	32.4	32.4	52	16.8	2	4	90	0.00	30.360 
13:00	32.5	32.5	32.5	51	16.4	1	5	90	0.00	30.350 
13:05	32.7	32.7	32.7	51	16.6	2	6	90	0.00	30.350 
13:10	32.7	32.7	32.7	50	16.1	2	4	112	0.00	30.350 
13:15	32.7	32.7	32.7	51	16.6	2	6	112	0.00	30.340 
13:20	32.7	32.7	32.7	51	16.6	1	4	112	0.00	30.340 
13:25	32.9	32.9	32.9	50	16.3	2	5	112	0.00	30.340 
13:30	33.1	33.1	33.1	51	17.0	2	6	90	0.00	30.333 
13:35	33.2	33.2	33.2	51	17.1	2	5	90	0.00	30.333 
13:40	33.4	33.4	33.4	51	17.2	1	4	90	0.00	30.333 
13:45	33.7	33.7	33.7	50	17.1	1	4	112	0.00	30.319 
13:50	33.8	33.8	33.8	50	17.2	1	5	135	0.00	30.319 
13:55	34.0	34.0	34.0	50	17.3	2	6	112	0.00	30.319 
14:00	33.8	33.8	33.8	49	16.7	1	4	112	0.00	30.311 
14:05	33.7	33.7	33.7	50	17.1	1	3	90	0.00	30.311 
14:10	33.5	33.5	33.5	50	16.9	1	4	112	0.00	30.311 
14:15	33.7	33.7	33.7	50	17.1	1	4	112	0.00	30.305 
14:20	33.7	33.7	33.7	51	17.5	2	5	112	0.00	30.305 
14:25	33.7	33.7	33.7	51	17.5	2	6	112	0.00	30.305 
14:30	33.7	33.7	33.7	51	17.5	1	5	112	0.00	30.306 
14:35	33.8	33.8	33.8	50	17.2	1	4	112	0.00	30.306 
14:40	33.8	33.8	33.8	51	17.6	1	4	112	0.00	30.306 
14:45	33.8	33.8	33.8	51	17.6	1	4	135	0.00	30.302 
14:50	33.7	33.7	33.7	52	18.0	1	4	112	0.00	30.302 
14:55	33.7	33.7	33.7	53	18.4	1	5	112	0.00	30.302 
15:00	33.5	33.5	33.5	53	18.2	2	5	90	0.00	30.297 
15:05	33.4	33.4	33.4	54	18.6	1	2	135	0.00	30.297 
15:10	33.5	33.5	33.5	54	18.7	1	4	135	0.00	30.297 
15:15	33.7	33.7	33.7	53	18.4	1	4	90	0.00	30.299 
15:20	33.8	33.8	33.8	54	18.9	1	3	112	0.00	30.299 
15:25	34.0	34.0	34.0	54	19.1	1	4	112	0.00	30.299 
15:30	34.1	34.1	34.1	54	19.2	1	4	112	0.00	30.301 
15:35	34.1	34.1	34.1	54	19.2	2	4	112	0.00	30.301 
15:40	34.1	34.1	34.1	54	19.2	2	4	90	0.00	30.301 
15:45	34.1	34.1	34.1	54	19.2	1	4	90	0.00	30.290 
15:50	34.1	34.1	34.1	55	19.6	0	3	90	0.00	30.290 
15:55	34.1	34.1	34.1	55	19.6	1	3	90	0.00	30.290 
16:00	34.3	34.3	34.3	55	19.8	2	4	90	0.00	30.289 
16:05	34.3	34.3	34.3	56	20.3	1	4	135	0.00	30.289 
16:10	34.3	34.3	34.3	56	20.3	1	3	135	0.00	30.289 
16:15	34.1	34.1	34.1	55	19.6	2	4	135	0.00	30.290 
16:20	34.1	34.1	34.1	57	20.5	2	4	112	0.00	30.290 
16:25	34.0	34.0	34.0	56	20.0	2	6	112	0.00	30.290 
16:30	34.0	34.0	34.0	57	20.4	2	4	135	0.00	30.282 
16:35	34.0	34.0	34.0	58	20.8	2	4	90	0.00	30.282 
16:40	34.0	34.0	34.0	58	20.8	1	3	90	0.00	30.282 
16:45	34.0	34.0	34.0	58	20.8	1	4	90	0.00	30.279 
16:50	34.0	34.0	34.0	59	21.2	2	4	90	0.00	30.279 
16:55	33.8	33.8	33.8	59	21.0	3	5	90	0.00	30.279 
17:00	33.8	33.8	33.8	60	21.4	2	5	90	0.00	30.275 
17:05	33.7	33.7	33.7	60	21.3	1	5	112	0.00	30.275 
17:10	33.7	33.7	33.7	60	21.3	1	2	112	0.00	30.275 
17:15	33.7	33.7	33.7	61	21.7	1	3	112	0.00	30.275 
17:20	33.5	33.5	33.5	61	21.5	1	2	112	0.00	30.275 
17:25	33.5	33.5	33.5	62	21.9	1	3	112	0.00	30.275 
17:30	33.5	33.5	33.5	62	21.9	1	2	112	0.00	30.265 
17:35	33.5	33.5	33.5	62	21.9	1	2	112	0.00	30.265 
17:40	33.5	33.5	33.5	63	22.3	1	2	112	0.00	30.265 
17:45	33.5	33.5	33.5	63	22.3	1	3	112	0.00	30.270 
17:50	33.5	33.5	33.5	63	22.3	1	3	112	0.00	30.270 
17:55	33.5	33.5	33.5	64	22.6	0	2	112	0.00	30.270 
18:00	33.5	33.5	33.5	65	23.0	0	2	112	0.00	30.275 
18:05	33.5	33.5	33.5	65	23.0	0	2	112	0.00	30.275 
18:10	33.5	33.5	33.5	65	23.0	1	3	112	0.00	30.275 
18:15	33.4	33.4	33.4	65	22.9	1	3	112	0.00	30.268 
18:20	33.4	33.4	33.4	64	22.6	1	3	112	0.00	30.268 
18:25	33.4	33.4	33.4	64	22.6	1	2	112	0.00	30.268 
18:30	33.4	33.4	33.4	64	22.6	0	2	112	0.00	30.269 
18:35	33.5	33.5	33.5	63	22.3	0	2	112	0.00	30.269 
18:40	33.5	33.5	33.5	63	22.3	0	2	112	0.00	30.269 
18:45	33.5	33.5	33.5	62	21.9	1	4	112	0.00	30.260 
18:50	33.7	33.7	33.7	62	22.1	1	3	112	0.00	30.260 
18:55	33.8	33.8	33.8	62	22.2	1	3	112	0.00	30.260 
19:00	33.8	33.8	33.8	62	22.2	0	2	90	0.00	30.259 
19:05	33.8	33.8	33.8	62	22.2	0	1	90	0.00	30.259 
19:10	33.7	33.7	33.7	62	22.1	0	2	90	0.00	30.259 
19:15	33.7	33.7	33.7	62	22.1	0	1	135	0.00	30.255 
19:20	33.8	33.8	33.8	62	22.2	0	2	68	0.00	30.255 
19:25	33.8	33.8	33.8	62	22.2	1	3	68	0.00	30.255 
19:30	33.8	33.8	33.8	62	22.2	1	2	90	0.00	30.253 
19:35	34.0	34.0	34.0	62	22.4	0	1	90	0.00	30.253 
19:40	34.0	34.0	34.0	62	22.4	1	2	90	0.00	30.253 
19:45	33.8	33.8	33.8	63	22.6	0	2	90	0.00	30.253 
19:50	33.8	33.8	33.8	62	22.2	0	2	90	0.00	30.253 
19:55	33.8	33.8	33.8	63	22.6	0	1	90	0.00	30.253 
20:00	33.8	33.8	33.8	63	22.6	0	2	90	0.00	30.247 
20:05	33.7	33.7	33.7	64	22.8	0	2	90	0.00	30.247 
20:10	33.7	33.7	33.7	64	22.8	0	2	90	0.00	30.247 
20:15	33.7	33.7	33.7	64	22.8	0	1	90	0.00	30.242 
20:20	33.5	33.5	33.5	64	22.6	0	2	90	0.00	30.242 
20:25	33.5	33.5	33.5	65	23.0	0	1	90	0.00	30.242 
20:30	33.5	33.5	33.5	65	23.0	0	1	90	0.00	30.237 
20:35	33.5	33.5	33.5	65	23.0	0	1	90	0.00	30.237 
20:40	33.5	33.5	33.5	65	23.0	0	2	90	0.00	30.237 
20:45	33.5	33.5	33.5	65	23.0	0	2	90	0.00	30.224 
20:50	33.4	33.4	33.4	64	22.6	0	1	90	0.00	30.224 
20:55	33.5	33.5	33.5	64	22.6	0	1	90	0.00	30.224 
21:00	33.5	33.5	33.5	63	22.3	0	2	90	0.00	30.225 
21:05	33.5	33.5	33.5	62	21.9	0	1	90	0.00	30.225 
21:10	33.7	33.7	33.7	62	22.1	0	2	112	0.00	30.225 
21:15	33.7	33.7	33.7	61	21.7	1	3	135	0.00	30.219 
21:20	33.7	33.7	33.7	61	21.7	0	1	90	0.00	30.219 
21:25	33.8	33.8	33.8	59	21.0	0	2	90	0.00	30.219 
21:30	33.8	33.8	33.8	59	21.0	0	2	112	0.00	30.218 
21:35	34.0	34.0	34.0	58	20.8	1	3	112	0.00	30.218 
21:40	34.1	34.1	34.1	58	20.9	1	3	112	0.00	30.218 
21:45	34.1	34.1	34.1	59	21.3	0	2	112	0.00	30.212 
21:50	34.0	34.0	34.0	59	21.2	0	1	135	0.00	30.212 
21:55	34.0	34.0	34.0	59	21.2	0	1	135	0.00	30.212 
22:00	34.0	34.0	34.0	59	21.2	0	1	135	0.00	30.204 
22:05	33.8	33.8	33.8	59	21.0	1	2	135	0.00	30.204 
22:10	33.8	33.8	33.8	59	21.0	0	2	90	0.00	30.204 
22:15	33.8	33.8	33.8	60	21.4	0	2	90	0.00	30.199 
22:20	33.8	33.8	33.8	60	21.4	0	1	90	0.00	30.199 
22:25	33.7	33.7	33.7	61	21.7	0	1	90	0.00	30.199 
22:30	33.7	33.7	33.7	61	21.7	0	1	90	0.00	30.189 
22:35	33.5	33.5	33.5	62	21.9	0	2	90	0.00	30.189 
22:40	33.5	33.5	33.5	62	21.9	0	2	90	0.00	30.189 
22:45	33.5	33.5	33.5	62	21.9	0	1	90	0.00	30.188 
22:50	33.4	33.4	33.4	62	21.8	0	1	90	0.00	30.188 
22:55	33.4	33.4	33.4	63	22.2	0	1	90	0.00	30.188 
23:00	33.4	33.4	33.4	63	22.2	0	1	90	0.00	30.183 
23:05	33.4	33.4	33.4	63	22.2	0	3	90	0.00	30.183 
23:10	33.4	33.4	33.4	63	22.2	0	0	---	0.00	30.183 
23:15	33.2	33.2	33.2	64	22.4	0	1	90	0.00	30.168 
23:20	33.2	33.2	33.2	64	22.4	0	1	90	0.00	30.168 
23:25	33.2	33.2	33.2	65	22.7	0	1	90	0.00	30.168 
23:30	33.1	33.1	33.1	65	22.6	0	2	90	0.00	30.165 
23:35	33.1	33.1	33.1	65	22.6	0	1	90	0.00	30.165 
23:40	33.1	33.1	33.1	65	22.6	0	1	90	0.00	30.165 
23:45	33.1	33.1	33.1	66	23.0	0	1	90	0.00	30.165 
23:50	33.1	33.1	33.1	66	23.0	0	1	90	0.00	30.165 
23:55	32.9	32.9	32.9	66	22.8	0	2	90	0.00	30.165 

CoCoRaHS
IN-AL-39
A2 Web Hosting
Creative Commons License
GoDaddy
search engine by freefind advanced

loaded 2018-11-13 01:28:55 • last modified 2010-11-18 10:43:29
Privacy PolicyDisclaimer
• wx.awcolley.com is powered by PmWiki v.2002016 •
• all content (unless otherwise noted) © 2018 A W Colley